F\v Desperado — FVFQ — position and weather

sailwx.info

Track history (hours):
 
Tides and Currents Weather Stations Pressure Air Temp Water Temp Dewpoint Dewpoint Depression Visibility Wind Speed Wind Dir Waves Ship Positions

F\v Desperado

Last reported at 2016-May-24 05:33 UTC. Time now 2016-May-24 15:42 UTC.
Position N 47°53' W 003°55'.

Type: Fishing. MMSI: 228312000.

Date/timePositionNaut miles runAvg speedWind from/ knotsBaromVisibWave heightAir tempDewpointWater temp
2016-May-24 05:33N 47°53' W 003°55'0 0.0
2016-May-24 03:21N 47°53' W 003°55'  
2016-May-19 21:03N 47°33' W 003°54'4 8.3
2016-May-19 20:33N 47°29' W 003°53'94 2.2
2016-May-18 01:14N 46°23' W 002°15'5 7.9
2016-May-18 00:33N 46°23' W 002°07'8 7.8
2016-May-17 23:33N 46°25' W 001°56'7 6.7
2016-May-17 22:33N 46°28' W 001°48'2 2.0
2016-May-17 21:33N 46°30' W 001°47'0 0.0
2016-May-17 20:33N 46°30' W 001°47'0 0.0
2016-May-17 19:33N 46°30' W 001°47'0 0.0
2016-May-17 18:33N 46°30' W 001°47'0 0.0
2016-May-17 17:33N 46°30' W 001°47'1 1.2
2016-May-17 16:33N 46°29' W 001°47'6 5.8
2016-May-17 15:33N 46°23' W 001°51'8 0.6
2016-May-17 02:33N 46°16' W 001°57'8 8.1
2016-May-17 01:33N 46°23' W 001°51'7 7.3
2016-May-17 00:33N 46°30' W 001°47'0 0.0
2016-May-16 23:33N 46°30' W 001°47'7 7.3
2016-May-16 22:33N 46°23' W 001°51'30 1.2
2016-May-15 22:33N 45°60' W 002°18'17 0.5
2016-May-14 12:24N 46°16' W 002°18'7 8.4
2016-May-14 11:33N 46°20' W 002°09'8 8.2
2016-May-14 10:33N 46°23' W 001°58'8 8.1
2016-May-14 09:33N 46°28' W 001°48'2 2.4
2016-May-14 08:33N 46°30' W 001°47'  
Track history (hours):
 
Tides and Currents Weather Stations Pressure Air Temp Water Temp Dewpoint Dewpoint Depression Visibility Wind Speed Wind Dir Waves Ship Positions

F\v Desperado

Last reported at 2016-May-24 05:33 UTC. Time now 2016-May-24 15:42 UTC.
Position N 47°53' W 003°55'.

Type: Fishing. MMSI: 228312000.

Date/timePositionNaut miles runAvg speedWind from/ knotsBaromVisibWave heightAir tempDewpointWater temp
2016-May-24 05:33N 47°53' W 003°55'0 0.0
2016-May-24 03:21N 47°53' W 003°55'  
2016-May-19 21:03N 47°33' W 003°54'4 8.3
2016-May-19 20:33N 47°29' W 003°53'94 2.2
2016-May-18 01:14N 46°23' W 002°15'5 7.9
2016-May-18 00:33N 46°23' W 002°07'8 7.8
2016-May-17 23:33N 46°25' W 001°56'7 6.7
2016-May-17 22:33N 46°28' W 001°48'2 2.0
2016-May-17 21:33N 46°30' W 001°47'0 0.0
2016-May-17 20:33N 46°30' W 001°47'0 0.0
2016-May-17 19:33N 46°30' W 001°47'0 0.0
2016-May-17 18:33N 46°30' W 001°47'0 0.0
2016-May-17 17:33N 46°30' W 001°47'1 1.2
2016-May-17 16:33N 46°29' W 001°47'6 5.8
2016-May-17 15:33N 46°23' W 001°51'8 0.6
2016-May-17 02:33N 46°16' W 001°57'8 8.1
2016-May-17 01:33N 46°23' W 001°51'7 7.3
2016-May-17 00:33N 46°30' W 001°47'0 0.0
2016-May-16 23:33N 46°30' W 001°47'7 7.3
2016-May-16 22:33N 46°23' W 001°51'30 1.2
2016-May-15 22:33N 45°60' W 002°18'17 0.5
2016-May-14 12:24N 46°16' W 002°18'7 8.4
2016-May-14 11:33N 46°20' W 002°09'8 8.2
2016-May-14 10:33N 46°23' W 001°58'8 8.1
2016-May-14 09:33N 46°28' W 001°48'2 2.4
2016-May-14 08:33N 46°30' W 001°47'  

Dump ship's entire track history